createdAt,value
2023-04-16T00:01:47.486Z,101413.88
2023-04-16T00:04:14.327Z,101418.44
2023-04-16T00:06:41.182Z,101426.59
2023-04-16T00:09:08.163Z,101388.47
2023-04-16T00:11:34.967Z,101347.88
2023-04-16T00:14:01.702Z,101367.09
2023-04-16T00:16:28.436Z,101422.16
2023-04-16T00:18:55.024Z,101431.63
2023-04-16T00:21:21.664Z,101431.84
2023-04-16T00:23:48.296Z,101435.25
2023-04-16T00:26:14.937Z,101415.06
2023-04-16T00:28:45.006Z,101437.72
2023-04-16T00:31:11.667Z,101435.13
2023-04-16T00:33:38.414Z,101439.53
2023-04-16T00:36:05.634Z,101430.88
2023-04-16T00:38:32.607Z,101432.97
2023-04-16T00:40:59.404Z,101432.00
2023-04-16T00:43:27.072Z,101428.56
2023-04-16T00:45:56.647Z,101436.50
2023-04-16T00:48:23.690Z,101433.78
2023-04-16T00:50:50.730Z,101436.38
2023-04-16T00:53:17.742Z,101437.66
2023-04-16T00:55:44.730Z,101455.81
2023-04-16T00:58:11.623Z,101388.31
2023-04-16T01:00:38.279Z,101050.28
2023-04-16T01:03:05.432Z,101455.28
2023-04-16T01:05:32.285Z,101440.50
2023-04-16T01:08:01.116Z,101363.47
2023-04-16T01:10:27.902Z,101431.94
2023-04-16T01:12:54.499Z,101443.03
2023-04-16T01:15:21.194Z,101451.78
2023-04-16T01:17:48.182Z,101357.53
2023-04-16T01:20:14.984Z,101445.44
2023-04-16T01:22:41.634Z,101447.19
2023-04-16T01:25:08.448Z,101446.28
2023-04-16T01:27:35.102Z,101445.44
2023-04-16T01:30:01.835Z,101448.09
2023-04-16T01:32:39.470Z,101404.56
2023-04-16T01:35:06.677Z,101248.81
2023-04-16T01:37:33.660Z,101442.09
2023-04-16T01:40:00.393Z,101347.75
2023-04-16T01:42:28.171Z,101445.25
2023-04-16T01:44:54.957Z,101440.06
2023-04-16T01:47:21.697Z,101431.25
2023-04-16T01:49:48.599Z,101444.78
2023-04-16T01:52:15.352Z,101430.88
2023-04-16T01:54:42.150Z,101384.88
2023-04-16T01:57:09.251Z,101351.78
2023-04-16T01:59:35.896Z,101433.63
2023-04-16T02:02:13.338Z,101438.13
2023-04-16T02:04:41.584Z,101430.66
2023-04-16T02:07:09.121Z,101435.00
2023-04-16T02:09:40.254Z,101389.56
2023-04-16T02:12:07.900Z,101435.69
2023-04-16T02:14:34.573Z,101429.25
2023-04-16T02:17:01.743Z,101445.50
2023-04-16T02:19:39.495Z,101370.00
2023-04-16T02:22:07.417Z,101436.00
2023-04-16T02:24:34.182Z,101393.81
2023-04-16T02:27:05.764Z,101541.50
2023-04-16T02:29:32.887Z,101440.28
2023-04-16T02:32:07.267Z,101438.88
2023-04-16T02:34:35.462Z,101441.56
2023-04-16T02:37:02.649Z,101445.13
2023-04-16T02:39:29.405Z,101429.56
2023-04-16T02:41:56.250Z,101436.81
2023-04-16T02:44:22.908Z,101432.00
2023-04-16T02:46:49.637Z,101429.97
2023-04-16T02:49:16.400Z,101320.09
2023-04-16T02:51:43.012Z,101383.34
2023-04-16T02:54:09.783Z,101435.75
2023-04-16T02:56:36.422Z,101075.13
2023-04-16T02:59:03.168Z,101403.28
2023-04-16T03:01:30.019Z,101436.66
2023-04-16T03:03:56.755Z,101434.84
2023-04-16T03:06:23.633Z,101435.25
2023-04-16T03:08:50.412Z,101436.00
2023-04-16T03:11:17.577Z,101435.69
2023-04-16T03:13:44.341Z,101296.19
2023-04-16T03:16:11.142Z,101430.88
2023-04-16T03:18:37.983Z,101428.72
2023-04-16T03:21:05.126Z,101401.13
2023-04-16T03:23:32.160Z,101439.75
2023-04-16T03:25:59.017Z,101433.47
2023-04-16T03:28:26.234Z,101339.13
2023-04-16T03:30:53.692Z,101072.28
2023-04-16T03:33:21.273Z,101443.63
2023-04-16T03:35:55.380Z,101438.66
2023-04-16T03:38:24.411Z,101436.06
2023-04-16T03:40:51.272Z,101448.75
2023-04-16T03:43:18.125Z,101440.09
2023-04-16T03:45:45.727Z,101437.50
2023-04-16T03:48:13.138Z,101452.94
2023-04-16T03:50:39.787Z,101443.00
2023-04-16T03:53:08.764Z,101445.47
2023-04-16T03:55:36.122Z,101286.13
2023-04-16T03:58:04.834Z,101412.75
2023-04-16T04:00:32.955Z,101441.81
2023-04-16T04:03:06.581Z,101419.38
2023-04-16T04:05:41.333Z,101441.84
2023-04-16T04:08:11.266Z,101444.59
2023-04-16T04:10:38.199Z,101354.63
2023-04-16T04:13:07.208Z,101231.03
2023-04-16T04:15:34.846Z,101411.69
2023-04-16T04:18:01.542Z,101441.34
2023-04-16T04:20:28.387Z,101388.41
2023-04-16T04:22:55.220Z,101336.53
2023-04-16T04:25:26.179Z,101452.91
2023-04-16T04:27:53.153Z,101441.44
2023-04-16T04:30:19.882Z,101403.16
2023-04-16T04:32:46.667Z,101450.59
2023-04-16T04:35:15.496Z,101441.69
2023-04-16T04:37:42.309Z,101448.00
2023-04-16T04:40:16.022Z,101453.63
2023-04-16T04:42:43.028Z,101210.84
2023-04-16T04:45:10.583Z,101452.28
2023-04-16T04:47:37.458Z,101446.25
2023-04-16T04:50:04.358Z,101426.41
2023-04-16T04:52:32.679Z,101463.19
2023-04-16T04:55:00.713Z,101383.91
2023-04-16T04:57:27.415Z,101468.16
2023-04-16T04:59:54.849Z,101471.59
2023-04-16T05:02:21.938Z,101471.97
2023-04-16T05:04:48.593Z,101133.91
2023-04-16T05:07:15.272Z,101472.09
2023-04-16T05:09:41.944Z,101182.69
2023-04-16T05:12:08.651Z,101473.06
2023-04-16T05:14:36.318Z,101117.13
2023-04-16T05:17:03.101Z,101476.84
2023-04-16T05:19:31.884Z,101479.16
2023-04-16T05:21:58.651Z,101442.28
2023-04-16T05:24:25.439Z,101422.75
2023-04-16T05:26:52.112Z,101561.94
2023-04-16T05:29:18.815Z,101486.03
2023-04-16T05:31:45.910Z,101402.19
2023-04-16T05:34:12.668Z,101487.78
2023-04-16T05:36:39.297Z,101483.94
2023-04-16T05:39:06.110Z,101489.25
2023-04-16T05:41:33.672Z,101488.69
2023-04-16T05:44:00.353Z,101465.56
2023-04-16T05:46:27.036Z,101158.22
2023-04-16T05:48:53.621Z,101489.66
2023-04-16T05:51:22.986Z,101350.13
2023-04-16T05:53:49.656Z,101488.97
2023-04-16T05:56:16.288Z,101470.34
2023-04-16T05:58:42.901Z,101490.56
2023-04-16T06:01:11.191Z,101497.72
2023-04-16T06:03:38.068Z,101496.91
2023-04-16T06:06:04.956Z,101503.22
2023-04-16T06:08:31.683Z,101505.75
2023-04-16T06:10:59.531Z,101480.47
2023-04-16T06:13:26.358Z,101505.63
2023-04-16T06:15:53.042Z,101496.25
2023-04-16T06:18:19.741Z,101517.34
2023-04-16T06:20:47.691Z,101523.50
2023-04-16T06:23:14.304Z,101514.22
2023-04-16T06:25:41.520Z,101608.56
2023-04-16T06:28:08.152Z,101489.03
2023-04-16T06:30:34.924Z,101422.41
2023-04-16T06:33:01.778Z,101493.19
2023-04-16T06:35:28.627Z,101441.28
2023-04-16T06:37:55.576Z,101517.22
2023-04-16T06:40:22.632Z,101524.94
2023-04-16T06:42:49.287Z,101519.06
2023-04-16T06:45:15.955Z,101445.84
2023-04-16T06:47:42.667Z,101527.53
2023-04-16T06:50:09.858Z,101523.69
2023-04-16T06:52:36.552Z,101523.84
2023-04-16T06:55:03.509Z,101550.53
2023-04-16T06:57:30.257Z,101509.09
2023-04-16T06:59:57.023Z,101529.13
2023-04-16T07:02:24.461Z,101536.59
2023-04-16T07:04:52.393Z,101544.78
2023-04-16T07:07:19.025Z,101513.47
2023-04-16T07:09:45.747Z,101536.66
2023-04-16T07:12:13.361Z,101449.78
2023-04-16T07:14:40.318Z,101550.38
2023-04-16T07:17:06.920Z,101541.47
2023-04-16T07:19:33.648Z,101548.31
2023-04-16T07:22:00.630Z,101541.53
2023-04-16T07:24:27.380Z,101545.84
2023-04-16T07:26:54.026Z,101537.47
2023-04-16T07:29:20.675Z,101511.16
2023-04-16T07:31:47.453Z,101517.91
2023-04-16T07:34:14.132Z,101538.72
2023-04-16T07:36:40.810Z,101505.88
2023-04-16T07:39:07.456Z,101541.72
2023-04-16T07:41:34.319Z,101451.59
2023-04-16T07:44:00.956Z,101542.31
2023-04-16T07:46:33.354Z,101547.19
2023-04-16T07:49:10.422Z,101543.69
2023-04-16T07:51:37.216Z,101523.81
2023-04-16T07:54:03.881Z,101545.44
2023-04-16T07:56:30.604Z,101525.97
2023-04-16T07:58:58.348Z,101541.88
2023-04-16T08:01:30.214Z,101531.88
2023-04-16T08:03:57.311Z,101424.44
2023-04-16T08:06:25.082Z,101547.91
2023-04-16T08:08:51.749Z,101386.28
2023-04-16T08:11:18.398Z,101551.97
2023-04-16T08:13:45.344Z,101528.03
2023-04-16T08:16:12.173Z,101552.34
2023-04-16T08:18:38.824Z,101557.16
2023-04-16T08:21:05.881Z,101557.53
2023-04-16T08:23:32.974Z,101553.44
2023-04-16T08:26:02.453Z,101532.06
2023-04-16T08:28:32.350Z,101216.81
2023-04-16T08:30:59.065Z,101557.00
2023-04-16T08:33:25.785Z,101562.59
2023-04-16T08:35:52.450Z,101576.03
2023-04-16T08:38:19.111Z,101570.69
2023-04-16T08:40:46.797Z,101519.16
2023-04-16T08:43:16.199Z,101426.38
2023-04-16T08:45:44.119Z,101466.06
2023-04-16T08:48:12.023Z,101559.38
2023-04-16T08:50:40.744Z,101541.78
2023-04-16T08:53:11.031Z,101573.78
2023-04-16T08:55:50.772Z,101539.84
2023-04-16T08:58:22.496Z,101558.81
2023-04-16T09:00:50.468Z,101562.75
2023-04-16T09:03:19.687Z,101557.81
2023-04-16T09:05:46.932Z,101446.78
2023-04-16T09:08:13.824Z,101560.69
2023-04-16T09:10:40.689Z,101569.16
2023-04-16T09:13:09.408Z,101318.44
2023-04-16T09:15:36.340Z,101492.09
2023-04-16T09:18:03.222Z,101566.66
2023-04-16T09:20:29.936Z,101567.09
2023-04-16T09:22:57.085Z,101570.09
2023-04-16T09:25:25.007Z,101573.28
2023-04-16T09:27:51.856Z,101489.38
2023-04-16T09:30:23.232Z,101575.63
2023-04-16T09:32:52.030Z,101572.00
2023-04-16T09:35:19.851Z,101574.69
2023-04-16T09:37:57.313Z,101520.75
2023-04-16T09:40:25.404Z,101572.66
2023-04-16T09:42:52.250Z,101572.31
2023-04-16T09:45:18.939Z,101568.31
2023-04-16T09:47:46.335Z,101507.59
2023-04-16T09:50:18.805Z,101566.69
2023-04-16T09:52:50.758Z,101518.66
2023-04-16T09:55:23.613Z,101555.06
2023-04-16T09:57:59.147Z,101482.56
2023-04-16T10:00:25.795Z,101534.97
2023-04-16T10:03:07.201Z,101542.09
2023-04-16T10:05:34.488Z,101527.56
2023-04-16T10:08:02.122Z,101573.75
2023-04-16T10:10:29.624Z,101578.78
2023-04-16T10:12:56.620Z,101545.81
2023-04-16T10:15:23.390Z,101573.41
2023-04-16T10:17:51.455Z,101578.53
2023-04-16T10:20:19.142Z,101583.97
2023-04-16T10:22:46.188Z,101570.47
2023-04-16T10:25:13.437Z,101601.72
2023-04-16T10:27:41.145Z,101581.97
2023-04-16T10:30:09.400Z,101585.69
2023-04-16T10:32:38.018Z,101586.59
2023-04-16T10:35:05.717Z,101588.09
2023-04-16T10:37:32.691Z,101535.59
2023-04-16T10:40:02.773Z,101565.69
2023-04-16T10:42:29.565Z,101587.88
2023-04-16T10:44:59.921Z,101590.38
2023-04-16T10:47:26.720Z,101593.72
2023-04-16T10:49:53.417Z,101594.47
2023-04-16T10:52:22.365Z,101597.38
2023-04-16T10:54:49.784Z,101604.91
2023-04-16T10:57:19.656Z,101595.69
2023-04-16T10:59:48.913Z,101580.09
2023-04-16T11:02:18.339Z,101595.59
2023-04-16T11:04:47.448Z,101595.34
2023-04-16T11:07:21.828Z,101523.31
2023-04-16T11:09:59.841Z,101591.69
2023-04-16T11:12:29.949Z,101598.28
2023-04-16T11:15:06.822Z,101593.72
2023-04-16T11:17:42.928Z,101555.09
2023-04-16T11:20:19.890Z,101582.41
2023-04-16T11:22:49.121Z,101329.28
2023-04-16T11:25:31.537Z,101591.47
2023-04-16T11:27:59.180Z,101592.16
2023-04-16T11:30:34.400Z,101601.56
2023-04-16T11:33:13.918Z,101587.72
2023-04-16T11:35:41.304Z,101611.66
2023-04-16T11:38:08.144Z,101580.56
2023-04-16T11:40:35.927Z,101584.31
2023-04-16T11:43:05.007Z,101462.72
2023-04-16T11:45:31.829Z,101486.44
2023-04-16T11:47:58.579Z,101594.03
2023-04-16T11:50:27.739Z,101588.81
2023-04-16T11:52:56.926Z,101582.56
2023-04-16T11:55:24.394Z,101584.88
2023-04-16T11:57:51.827Z,101586.75
2023-04-16T12:00:23.751Z,101534.56
2023-04-16T12:02:53.936Z,101584.25
2023-04-16T12:05:38.748Z,101587.75
2023-04-16T12:08:10.177Z,101586.75
2023-04-16T12:10:52.936Z,101530.03
2023-04-16T12:13:19.982Z,101597.81
2023-04-16T12:15:51.540Z,101498.00
2023-04-16T12:18:20.239Z,101591.59
2023-04-16T12:20:47.499Z,101224.63
2023-04-16T12:23:33.689Z,101587.50
2023-04-16T12:26:10.536Z,101588.63
2023-04-16T12:28:38.564Z,101453.38
2023-04-16T12:31:06.408Z,101514.28
2023-04-16T12:33:33.166Z,101595.59
2023-04-16T12:36:00.484Z,101592.88
2023-04-16T12:38:27.929Z,101600.53
2023-04-16T12:40:56.978Z,101595.31
2023-04-16T12:43:24.433Z,101598.09
2023-04-16T12:45:51.386Z,101592.88
2023-04-16T12:48:17.992Z,101589.25
2023-04-16T12:50:44.733Z,101602.19
2023-04-16T12:53:11.952Z,101597.28
2023-04-16T12:55:38.650Z,101597.38
2023-04-16T12:58:05.422Z,101628.09
2023-04-16T13:00:32.166Z,101493.09
2023-04-16T13:02:58.890Z,101363.28
2023-04-16T13:05:25.729Z,101539.19
2023-04-16T13:07:52.446Z,101589.56
2023-04-16T13:10:21.997Z,101590.28
2023-04-16T13:12:48.939Z,101590.38
2023-04-16T13:15:15.842Z,101592.16
2023-04-16T13:17:42.638Z,101586.84
2023-04-16T13:20:10.091Z,101442.53
2023-04-16T13:22:36.911Z,101590.28
2023-04-16T13:25:04.025Z,101590.84
2023-04-16T13:27:32.204Z,101551.44
2023-04-16T13:29:58.899Z,101583.00
2023-04-16T13:32:25.741Z,101587.41
2023-04-16T13:34:57.660Z,101580.59
2023-04-16T13:37:27.578Z,101581.81
2023-04-16T13:39:54.281Z,101501.47
2023-04-16T13:42:22.150Z,101599.78
2023-04-16T13:44:52.964Z,101579.38
2023-04-16T13:47:19.784Z,101534.34
2023-04-16T13:49:47.606Z,101577.72
2023-04-16T13:52:14.515Z,101573.03
2023-04-16T13:54:41.544Z,101581.22
2023-04-16T13:57:19.888Z,101578.25
2023-04-16T13:59:46.659Z,101568.00
2023-04-16T14:02:13.403Z,101579.94
2023-04-16T14:04:40.465Z,101582.06
2023-04-16T14:07:07.060Z,101526.16
2023-04-16T14:09:33.700Z,101559.63
2023-04-16T14:12:00.569Z,101270.06
2023-04-16T14:14:27.261Z,101388.41
2023-04-16T14:16:58.627Z,101572.09
2023-04-16T14:19:25.582Z,101578.53
2023-04-16T14:21:52.261Z,101561.94
2023-04-16T14:24:18.994Z,101524.91
2023-04-16T14:26:45.917Z,101566.88
2023-04-16T14:29:12.702Z,101562.13
2023-04-16T14:31:39.420Z,101559.88
2023-04-16T14:34:06.149Z,101555.84
2023-04-16T14:36:32.854Z,101540.44
2023-04-16T14:38:59.624Z,101469.81
2023-04-16T14:41:27.120Z,101551.59
2023-04-16T14:43:53.825Z,101481.94
2023-04-16T14:46:20.467Z,101569.16
2023-04-16T14:48:47.153Z,101551.59
2023-04-16T14:51:13.914Z,101527.63
2023-04-16T14:53:40.765Z,101368.88
2023-04-16T14:56:07.779Z,101567.69
2023-04-16T14:58:37.845Z,101542.19
2023-04-16T15:01:05.872Z,101569.25
2023-04-16T15:03:32.985Z,101557.44
2023-04-16T15:06:00.353Z,101521.22
2023-04-16T15:08:27.158Z,101568.56
2023-04-16T15:10:53.790Z,101553.19
2023-04-16T15:13:20.522Z,101519.41
2023-04-16T15:15:47.591Z,101592.59
2023-04-16T15:18:14.795Z,101401.22
2023-04-16T15:20:41.546Z,101541.53
2023-04-16T15:23:08.189Z,101565.16
2023-04-16T15:25:34.777Z,101571.00
2023-04-16T15:28:02.644Z,101558.38
2023-04-16T15:30:30.934Z,101440.56
2023-04-16T15:32:57.622Z,101558.63
2023-04-16T15:35:24.558Z,101574.94
2023-04-16T15:37:52.769Z,101575.03
2023-04-16T15:40:20.889Z,101502.97
2023-04-16T15:42:47.783Z,101558.56
2023-04-16T15:45:14.434Z,101593.81
2023-04-16T15:47:41.965Z,101471.19
2023-04-16T15:50:09.022Z,101549.06
2023-04-16T15:52:36.469Z,101526.84
2023-04-16T15:55:04.338Z,101572.41
2023-04-16T15:57:31.499Z,101460.34
2023-04-16T16:00:06.382Z,101456.91
2023-04-16T16:02:34.103Z,101583.09
2023-04-16T16:05:00.977Z,101582.38
2023-04-16T16:07:27.695Z,101588.66
2023-04-16T16:09:54.342Z,101585.59
2023-04-16T16:12:21.000Z,101586.56
2023-04-16T16:14:47.820Z,101482.91
2023-04-16T16:17:14.859Z,101588.75
2023-04-16T16:19:41.461Z,101522.75
2023-04-16T16:22:10.093Z,101548.81
2023-04-16T16:24:36.734Z,101521.38
2023-04-16T16:27:03.504Z,101582.94
2023-04-16T16:29:30.440Z,101581.69
2023-04-16T16:31:57.260Z,101417.41
2023-04-16T16:34:23.908Z,101498.28
2023-04-16T16:36:50.820Z,101444.78
2023-04-16T16:39:18.277Z,101582.03
2023-04-16T16:41:45.670Z,101500.63
2023-04-16T16:44:12.251Z,101580.41
2023-04-16T16:46:38.917Z,101589.34
2023-04-16T16:49:06.919Z,101576.50
2023-04-16T16:51:33.955Z,101584.97
2023-04-16T16:54:00.687Z,101565.31
2023-04-16T16:56:27.979Z,101580.28
2023-04-16T16:58:54.613Z,101528.19
2023-04-16T17:01:21.349Z,101597.78
2023-04-16T17:03:48.118Z,101577.69
2023-04-16T17:06:14.943Z,101590.59
2023-04-16T17:08:41.854Z,101520.16
2023-04-16T17:11:08.519Z,101595.09
2023-04-16T17:13:35.554Z,101592.22
2023-04-16T17:16:02.437Z,101560.41
2023-04-16T17:18:29.104Z,101608.63
2023-04-16T17:20:56.090Z,101595.34
2023-04-16T17:23:22.898Z,101547.06
2023-04-16T17:25:49.870Z,101468.44
2023-04-16T17:28:16.726Z,101599.25
2023-04-16T17:30:43.601Z,101282.25
2023-04-16T17:33:10.415Z,101620.59
2023-04-16T17:35:40.049Z,101420.03
2023-04-16T17:38:07.076Z,101617.66
2023-04-16T17:40:33.843Z,101636.63
2023-04-16T17:43:00.603Z,101620.50
2023-04-16T17:45:27.421Z,101631.41
2023-04-16T17:47:54.065Z,101584.19
2023-04-16T17:50:20.920Z,101413.53
2023-04-16T17:52:47.877Z,101621.66
2023-04-16T17:55:15.634Z,101627.34
2023-04-16T17:57:42.414Z,101627.44
2023-04-16T18:00:12.619Z,101567.94
2023-04-16T18:02:40.888Z,101500.69
2023-04-16T18:05:08.301Z,101245.97
2023-04-16T18:07:35.700Z,101625.28
2023-04-16T18:10:02.712Z,101665.16
2023-04-16T18:12:29.480Z,101050.38
2023-04-16T18:14:56.217Z,101117.63
2023-04-16T18:17:23.838Z,101691.25
2023-04-16T18:19:50.773Z,100971.59
2023-04-16T18:22:17.527Z,100700.03
2023-04-16T18:24:44.217Z,100501.31
2023-04-16T18:27:11.929Z,100711.44
2023-04-16T18:29:40.519Z,100766.97
2023-04-16T18:32:12.165Z,101749.09
2023-04-16T18:34:40.830Z,100810.25
2023-04-16T18:37:08.626Z,101251.97
2023-04-16T18:39:37.269Z,101152.06
2023-04-16T18:42:04.207Z,101666.25
2023-04-16T18:44:31.356Z,101055.41
2023-04-16T18:46:58.137Z,101363.06
2023-04-16T18:49:25.502Z,101664.34
2023-04-16T18:51:55.690Z,101671.50
2023-04-16T18:54:22.928Z,101680.19
2023-04-16T18:56:49.565Z,101679.94
2023-04-16T18:59:16.275Z,101609.44
2023-04-16T19:01:43.193Z,101665.78
2023-04-16T19:04:09.944Z,101687.84
2023-04-16T19:06:36.625Z,101643.38
2023-04-16T19:09:03.675Z,101695.22
2023-04-16T19:11:30.546Z,101334.56
2023-04-16T19:13:57.561Z,101567.25
2023-04-16T19:16:24.271Z,101591.97
2023-04-16T19:18:51.644Z,101587.03
2023-04-16T19:21:18.378Z,101708.94
2023-04-16T19:23:44.942Z,101661.97
2023-04-16T19:26:11.740Z,101645.69
2023-04-16T19:28:38.866Z,101710.50
2023-04-16T19:31:06.473Z,101716.06
2023-04-16T19:33:33.265Z,101697.81
2023-04-16T19:36:00.428Z,101715.47
2023-04-16T19:38:27.326Z,101350.94
2023-04-16T19:40:55.278Z,101692.56
2023-04-16T19:43:21.828Z,101719.09
2023-04-16T19:45:53.481Z,101715.91
2023-04-16T19:48:20.486Z,101726.06
2023-04-16T19:50:47.751Z,101649.94
2023-04-16T19:53:14.644Z,101708.50
2023-04-16T19:55:42.022Z,101537.84
2023-04-16T19:58:09.534Z,101731.78
2023-04-16T20:00:37.437Z,101719.56
2023-04-16T20:03:05.627Z,101734.84
2023-04-16T20:05:32.288Z,101726.09
2023-04-16T20:07:59.020Z,101722.81
2023-04-16T20:10:26.405Z,101552.16
2023-04-16T20:12:53.311Z,101724.16
2023-04-16T20:15:20.264Z,101727.97
2023-04-16T20:17:47.146Z,101653.44
2023-04-16T20:20:15.972Z,101691.03
2023-04-16T20:22:43.265Z,101687.47
2023-04-16T20:25:10.087Z,101661.03
2023-04-16T20:27:36.735Z,101723.81
2023-04-16T20:30:05.425Z,101798.28
2023-04-16T20:32:32.347Z,101673.47
2023-04-16T20:34:59.722Z,101739.84
2023-04-16T20:37:26.337Z,101729.47
2023-04-16T20:39:54.160Z,101629.78
2023-04-16T20:42:22.056Z,101685.38
2023-04-16T20:44:56.738Z,101743.41
2023-04-16T20:47:23.877Z,101748.66
2023-04-16T20:49:52.714Z,101706.63
2023-04-16T20:52:19.698Z,101861.16
2023-04-16T20:54:47.196Z,101752.88
2023-04-16T20:57:14.099Z,101734.91
2023-04-16T20:59:41.035Z,101696.00
2023-04-16T21:02:07.953Z,101721.88
2023-04-16T21:04:34.931Z,101624.56
2023-04-16T21:07:04.025Z,101762.00
2023-04-16T21:09:31.365Z,101705.63
2023-04-16T21:11:58.034Z,101746.16
2023-04-16T21:14:24.574Z,101705.91
2023-04-16T21:16:51.279Z,101758.22
2023-04-16T21:19:17.929Z,101754.63
2023-04-16T21:21:44.527Z,101758.59
2023-04-16T21:24:11.226Z,101762.22
2023-04-16T21:26:37.905Z,101839.41
2023-04-16T21:29:04.861Z,101682.75
2023-04-16T21:31:31.665Z,101742.69
2023-04-16T21:33:58.350Z,101758.81
2023-04-16T21:36:27.455Z,101731.16
2023-04-16T21:38:54.049Z,101759.16
2023-04-16T21:41:20.961Z,101768.59
2023-04-16T21:43:47.590Z,101765.94
2023-04-16T21:46:14.260Z,101728.34
2023-04-16T21:48:40.901Z,101728.50
2023-04-16T21:51:08.237Z,101742.25
2023-04-16T21:53:35.310Z,101763.06
2023-04-16T21:56:01.981Z,101749.19
2023-04-16T21:58:28.621Z,101708.97
2023-04-16T22:00:55.321Z,101764.34
2023-04-16T22:03:26.496Z,101768.47
2023-04-16T22:05:58.183Z,101774.38
2023-04-16T22:08:27.107Z,101778.19
2023-04-16T22:11:01.909Z,101778.19
2023-04-16T22:13:32.550Z,101776.06
2023-04-16T22:16:03.342Z,101760.91
2023-04-16T22:18:32.968Z,101690.00
2023-04-16T22:21:00.361Z,101787.69
2023-04-16T22:23:27.053Z,101782.78
2023-04-16T22:25:55.379Z,101741.97
2023-04-16T22:28:22.470Z,101736.97
2023-04-16T22:30:49.348Z,101784.09
2023-04-16T22:33:16.314Z,101719.28
2023-04-16T22:35:43.096Z,101801.75
2023-04-16T22:38:10.387Z,101794.09
2023-04-16T22:40:37.299Z,101802.34
2023-04-16T22:43:04.380Z,101770.59
2023-04-16T22:45:31.083Z,101805.47
2023-04-16T22:47:57.867Z,101795.09
2023-04-16T22:50:24.541Z,101807.19
2023-04-16T22:52:51.161Z,101726.63
2023-04-16T22:55:18.065Z,101797.00
2023-04-16T22:57:44.661Z,101793.56
2023-04-16T23:00:16.558Z,101795.78
2023-04-16T23:02:44.134Z,101732.13
2023-04-16T23:05:11.074Z,101797.03
2023-04-16T23:07:37.730Z,101780.47
2023-04-16T23:10:04.784Z,101795.66
2023-04-16T23:12:31.403Z,101796.63
2023-04-16T23:14:58.324Z,101801.88
2023-04-16T23:17:25.122Z,101803.25
2023-04-16T23:19:51.761Z,101809.22
2023-04-16T23:22:18.406Z,101769.78
2023-04-16T23:24:45.067Z,101448.34
2023-04-16T23:27:11.923Z,101689.44
2023-04-16T23:29:38.574Z,101791.22
2023-04-16T23:32:05.284Z,101818.09
2023-04-16T23:34:31.935Z,101810.91
2023-04-16T23:36:58.548Z,101615.75
2023-04-16T23:39:25.362Z,101815.56
2023-04-16T23:41:51.992Z,101808.53
2023-04-16T23:44:18.640Z,101795.28
2023-04-16T23:46:45.474Z,101809.47
2023-04-16T23:49:12.201Z,101716.94
2023-04-16T23:51:38.973Z,101814.00
2023-04-16T23:54:06.024Z,101813.16
2023-04-16T23:56:32.706Z,101789.59
2023-04-16T23:58:59.386Z,101816.13
